createdAt,value
2023-04-28T00:01:39.193Z,2.97
2023-04-28T00:04:05.965Z,3.10
2023-04-28T00:06:32.775Z,3.03
2023-04-28T00:08:59.511Z,3.10
2023-04-28T00:11:26.364Z,2.80
2023-04-28T00:13:53.157Z,4.10
2023-04-28T00:16:19.846Z,3.45
2023-04-28T00:18:46.770Z,2.88
2023-04-28T00:21:13.489Z,3.30
2023-04-28T00:23:40.176Z,3.03
2023-04-28T00:26:06.818Z,3.95
2023-04-28T00:28:34.906Z,3.53
2023-04-28T00:31:04.858Z,3.67
2023-04-28T00:33:31.556Z,3.78
2023-04-28T00:36:01.616Z,3.53
2023-04-28T00:38:28.838Z,3.90
2023-04-28T00:40:55.727Z,5.03
2023-04-28T00:43:22.567Z,6.15
2023-04-28T00:45:52.238Z,4.50
2023-04-28T00:50:48.337Z,4.57
2023-04-28T00:53:15.317Z,4.47
2023-04-28T00:55:43.098Z,4.28
2023-04-28T00:58:10.053Z,4.53
2023-04-28T01:00:36.694Z,3.97
2023-04-28T01:03:03.796Z,3.83
2023-04-28T01:05:34.930Z,3.60
2023-04-28T01:08:01.685Z,3.65
2023-04-28T01:10:28.432Z,3.72
2023-04-28T01:12:57.169Z,3.83
2023-04-28T01:15:23.887Z,4.25
2023-04-28T01:17:53.748Z,2.90
2023-04-28T01:20:20.700Z,3.53
2023-04-28T01:22:47.463Z,3.35
2023-04-28T01:25:14.219Z,2.90
2023-04-28T01:27:41.038Z,3.00
2023-04-28T01:30:08.896Z,3.13
2023-04-28T01:32:36.095Z,2.90
2023-04-28T01:35:03.524Z,2.95
2023-04-28T01:37:30.495Z,2.97
2023-04-28T01:39:57.450Z,3.55
2023-04-28T01:42:37.041Z,2.53
2023-04-28T01:45:05.250Z,3.58
2023-04-28T01:47:32.217Z,3.33
2023-04-28T01:49:58.917Z,4.07
2023-04-28T01:52:27.323Z,4.30
2023-04-28T01:55:13.355Z,3.25
2023-04-28T01:57:40.037Z,3.70
2023-04-28T02:00:07.657Z,3.72
2023-04-28T02:02:37.519Z,4.07
2023-04-28T02:05:04.472Z,3.80
2023-04-28T02:07:31.246Z,4.05
2023-04-28T02:09:57.895Z,3.60
2023-04-28T02:12:24.603Z,3.70
2023-04-28T02:14:51.585Z,3.70
2023-04-28T02:17:18.241Z,4.63
2023-04-28T02:19:46.518Z,3.47
2023-04-28T02:22:13.204Z,3.20
2023-04-28T02:24:40.714Z,2.95
2023-04-28T02:27:07.543Z,2.90
2023-04-28T02:29:34.287Z,2.92
2023-04-28T02:32:01.185Z,2.13
2023-04-28T02:34:27.934Z,2.78
2023-04-28T02:36:54.633Z,2.72
2023-04-28T02:39:26.799Z,2.55
2023-04-28T02:41:56.652Z,2.50
2023-04-28T02:44:23.548Z,2.60
2023-04-28T02:46:52.678Z,2.45
2023-04-28T02:49:19.400Z,2.75
2023-04-28T02:51:46.290Z,2.72
2023-04-28T02:54:13.129Z,2.78
2023-04-28T02:56:41.349Z,2.90
2023-04-28T02:59:08.180Z,3.10
2023-04-28T03:01:34.939Z,2.67
2023-04-28T03:04:02.203Z,3.53
2023-04-28T03:06:29.312Z,2.47
2023-04-28T03:08:56.025Z,2.92
2023-04-28T03:11:22.675Z,3.22
2023-04-28T03:13:49.404Z,3.63
2023-04-28T03:16:16.165Z,2.95
2023-04-28T03:18:45.381Z,3.05
2023-04-28T03:21:12.149Z,2.45
2023-04-28T03:23:38.826Z,3.15
2023-04-28T03:26:05.816Z,3.10
2023-04-28T03:28:32.698Z,3.15
2023-04-28T03:31:00.491Z,2.80
2023-04-28T03:33:29.500Z,2.80
2023-04-28T03:35:57.063Z,2.92
2023-04-28T03:38:23.890Z,2.95
2023-04-28T03:40:51.048Z,3.08
2023-04-28T03:43:37.495Z,2.90
2023-04-28T03:46:26.787Z,2.88
2023-04-28T03:48:54.341Z,2.65
2023-04-28T03:51:21.299Z,2.90
2023-04-28T03:53:50.077Z,2.33
2023-04-28T03:56:17.203Z,2.40
2023-04-28T03:58:43.957Z,2.13
2023-04-28T04:01:10.884Z,2.40
2023-04-28T04:03:37.931Z,2.72
2023-04-28T04:06:05.021Z,2.53
2023-04-28T04:08:33.009Z,2.58
2023-04-28T04:11:00.376Z,2.75
2023-04-28T04:13:27.042Z,2.60
2023-04-28T04:15:54.006Z,2.67
2023-04-28T04:18:23.148Z,3.08
2023-04-28T04:21:16.210Z,3.28
2023-04-28T04:23:42.870Z,2.88
2023-04-28T04:26:09.646Z,3.20
2023-04-28T04:28:36.930Z,2.83
2023-04-28T04:31:05.422Z,3.08
2023-04-28T04:33:32.280Z,3.80
2023-04-28T04:35:59.102Z,3.13
2023-04-28T04:38:26.061Z,2.35
2023-04-28T04:40:53.238Z,2.80
2023-04-28T04:43:20.092Z,3.35
2023-04-28T04:45:49.588Z,2.78
2023-04-28T04:48:17.155Z,2.97
2023-04-28T04:50:44.481Z,3.28
2023-04-28T04:53:14.004Z,2.88
2023-04-28T04:55:43.476Z,3.22
2023-04-28T04:58:10.529Z,3.03
2023-04-28T05:00:55.590Z,3.65
2023-04-28T05:03:22.474Z,3.22
2023-04-28T05:05:49.626Z,3.47
2023-04-28T05:08:21.876Z,3.30
2023-04-28T05:10:48.586Z,3.22
2023-04-28T05:13:18.772Z,3.17
2023-04-28T05:15:47.012Z,3.33
2023-04-28T05:18:32.318Z,3.10
2023-04-28T05:20:59.674Z,3.40
2023-04-28T05:23:26.606Z,3.90
2023-04-28T05:25:53.563Z,3.50
2023-04-28T05:28:22.139Z,3.78
2023-04-28T05:30:50.776Z,7.30
2023-04-28T05:33:17.568Z,3.53
2023-04-28T05:35:47.092Z,3.50
2023-04-28T05:38:14.929Z,3.58
2023-04-28T05:40:43.512Z,4.28
2023-04-28T05:43:11.763Z,4.07
2023-04-28T05:45:38.840Z,3.63
2023-04-28T05:48:06.287Z,4.82
2023-04-28T05:50:33.684Z,4.50
2023-04-28T05:53:01.700Z,5.70
2023-04-28T05:55:29.773Z,7.03
2023-04-28T05:57:56.599Z,6.13
2023-04-28T06:00:23.454Z,6.50
2023-04-28T06:02:53.689Z,6.35
2023-04-28T06:05:21.303Z,7.55
2023-04-28T06:07:50.535Z,7.47
2023-04-28T06:10:18.976Z,6.20
2023-04-28T06:12:46.021Z,7.95
2023-04-28T06:15:12.808Z,9.88
2023-04-28T06:17:39.819Z,10.38
2023-04-28T06:20:07.882Z,10.65
2023-04-28T06:22:34.873Z,10.18
2023-04-28T06:25:02.081Z,12.13
2023-04-28T06:27:34.791Z,11.55
2023-04-28T06:30:01.713Z,9.75
2023-04-28T06:32:28.587Z,17.25
2023-04-28T06:34:57.098Z,11.20
2023-04-28T06:37:25.799Z,12.48
2023-04-28T06:39:52.488Z,15.10
2023-04-28T06:42:20.486Z,14.20
2023-04-28T06:44:55.630Z,14.60
2023-04-28T06:47:22.367Z,12.98
2023-04-28T06:49:50.210Z,13.75
2023-04-28T06:52:17.194Z,15.45
2023-04-28T06:54:43.893Z,16.23
2023-04-28T06:57:10.749Z,13.82
2023-04-28T06:59:38.251Z,14.93
2023-04-28T07:02:05.390Z,14.98
2023-04-28T07:04:32.228Z,13.27
2023-04-28T07:07:00.251Z,13.23
2023-04-28T07:09:27.032Z,11.27
2023-04-28T07:11:54.379Z,14.95
2023-04-28T07:14:21.387Z,12.40
2023-04-28T07:16:48.121Z,13.18
2023-04-28T07:19:14.912Z,13.20
2023-04-28T07:21:41.650Z,13.68
2023-04-28T07:24:08.442Z,13.15
2023-04-28T07:26:35.248Z,12.18
2023-04-28T07:29:02.913Z,13.60
2023-04-28T07:31:29.706Z,13.05
2023-04-28T07:33:56.910Z,12.82
2023-04-28T07:36:23.714Z,12.00
2023-04-28T07:38:50.604Z,25.23
2023-04-28T07:41:18.778Z,12.40
2023-04-28T07:43:45.654Z,13.05
2023-04-28T07:46:13.209Z,12.32
2023-04-28T07:48:40.205Z,13.35
2023-04-28T07:51:07.088Z,11.25
2023-04-28T07:53:34.053Z,12.32
2023-04-28T07:56:01.392Z,14.02
2023-04-28T07:58:28.197Z,11.35
2023-04-28T08:00:55.007Z,10.15
2023-04-28T08:03:22.156Z,9.00
2023-04-28T08:05:50.348Z,8.50
2023-04-28T08:08:17.389Z,8.57
2023-04-28T08:10:47.737Z,7.72
2023-04-28T08:13:18.825Z,7.32
2023-04-28T08:15:52.240Z,6.93
2023-04-28T08:18:19.658Z,6.60
2023-04-28T08:20:46.823Z,6.10
2023-04-28T08:23:13.683Z,6.70
2023-04-28T08:25:40.778Z,6.50
2023-04-28T08:28:09.120Z,5.20
2023-04-28T08:30:36.463Z,4.53
2023-04-28T08:33:04.997Z,5.40
2023-04-28T08:35:33.563Z,4.78
2023-04-28T08:38:00.546Z,5.03
2023-04-28T08:40:29.747Z,5.05
2023-04-28T08:42:56.854Z,4.53
2023-04-28T08:45:25.856Z,4.38
2023-04-28T08:47:54.961Z,5.70
2023-04-28T08:50:25.405Z,3.22
2023-04-28T08:52:52.675Z,4.18
2023-04-28T08:55:21.070Z,3.17
2023-04-28T08:57:51.579Z,2.72
2023-04-28T09:00:19.098Z,3.20
2023-04-28T09:02:46.052Z,3.13
2023-04-28T09:05:14.594Z,2.90
2023-04-28T09:07:41.660Z,2.88
2023-04-28T09:10:21.695Z,2.95
2023-04-28T09:12:51.528Z,3.05
2023-04-28T09:15:34.451Z,3.65
2023-04-28T09:18:06.514Z,3.08
2023-04-28T09:20:35.801Z,2.97
2023-04-28T09:23:14.904Z,2.63
2023-04-28T09:25:55.518Z,3.60
2023-04-28T09:28:22.961Z,3.28
2023-04-28T09:30:49.670Z,4.03
2023-04-28T09:33:16.628Z,2.70
2023-04-28T09:35:45.818Z,3.88
2023-04-28T09:38:12.801Z,2.53
2023-04-28T09:40:54.713Z,2.65
2023-04-28T09:43:26.691Z,2.33
2023-04-28T09:45:53.818Z,3.60
2023-04-28T09:48:47.275Z,3.10
2023-04-28T09:51:21.226Z,3.17
2023-04-28T09:53:48.199Z,3.78
2023-04-28T09:56:16.436Z,2.30
2023-04-28T09:58:44.997Z,2.13
2023-04-28T10:01:14.103Z,2.45
2023-04-28T10:03:41.979Z,2.95
2023-04-28T10:06:08.924Z,2.60
2023-04-28T10:08:36.074Z,2.50
2023-04-28T10:11:03.167Z,3.53
2023-04-28T10:13:30.090Z,3.03
2023-04-28T10:15:58.707Z,3.13
2023-04-28T10:18:27.000Z,3.85
2023-04-28T10:21:00.908Z,4.30
2023-04-28T10:23:49.138Z,3.63
2023-04-28T10:26:20.746Z,2.90
2023-04-28T10:28:48.904Z,3.10
2023-04-28T10:31:18.840Z,2.38
2023-04-28T10:33:45.584Z,3.42
2023-04-28T10:36:59.461Z,4.07
2023-04-28T10:39:26.137Z,4.57
2023-04-28T10:41:52.844Z,3.85
2023-04-28T10:44:29.060Z,4.00
2023-04-28T10:47:10.903Z,4.03
2023-04-28T10:50:08.189Z,5.15
2023-04-28T10:52:38.492Z,2.88
2023-04-28T10:55:36.463Z,5.00
2023-04-28T10:58:15.936Z,2.70
2023-04-28T11:03:38.411Z,2.83
2023-04-28T11:06:26.814Z,4.10
2023-04-28T11:09:01.005Z,3.78
2023-04-28T11:11:39.641Z,3.85
2023-04-28T11:14:21.519Z,3.50
2023-04-28T11:17:03.156Z,4.50
2023-04-28T11:19:33.254Z,4.00
2023-04-28T11:22:15.198Z,5.13
2023-04-28T11:24:54.563Z,2.88
2023-04-28T11:27:25.944Z,4.68
2023-04-28T11:29:52.745Z,4.63
2023-04-28T11:32:36.045Z,6.07
2023-04-28T11:35:04.708Z,5.50
2023-04-28T11:37:31.778Z,4.57
2023-04-28T11:39:58.493Z,5.82
2023-04-28T11:42:27.224Z,6.13
2023-04-28T11:47:42.698Z,5.63
2023-04-28T11:50:09.760Z,7.63
2023-04-28T11:52:36.658Z,6.70
2023-04-28T11:55:03.797Z,6.95
2023-04-28T11:57:30.499Z,9.40
2023-04-28T11:59:21.436Z,7.50
2023-04-28T12:00:14.873Z,7.40
2023-04-28T12:02:42.212Z,7.88
2023-04-28T12:05:10.820Z,8.45
2023-04-28T12:07:43.457Z,7.53
2023-04-28T12:10:12.116Z,9.02
2023-04-28T12:12:50.006Z,9.10
2023-04-28T12:15:20.477Z,10.02
2023-04-28T12:20:36.662Z,7.32
2023-04-28T12:23:03.774Z,8.32
2023-04-28T12:25:30.843Z,8.63
2023-04-28T12:28:02.716Z,11.20
2023-04-28T12:30:33.361Z,16.00
2023-04-28T12:33:00.438Z,9.90
2023-04-28T12:35:29.136Z,6.50
2023-04-28T12:37:58.583Z,6.63
2023-04-28T12:40:26.080Z,26.05
2023-04-28T12:42:52.924Z,6.18
2023-04-28T12:45:19.854Z,3.65
2023-04-28T12:47:47.419Z,3.53
2023-04-28T12:50:14.246Z,4.05
2023-04-28T12:52:41.494Z,2.50
2023-04-28T12:55:08.825Z,5.07
2023-04-28T12:57:39.125Z,3.50
2023-04-28T13:00:07.442Z,3.45
2023-04-28T13:02:34.978Z,3.30
2023-04-28T13:05:02.118Z,3.15
2023-04-28T13:07:30.566Z,3.20
2023-04-28T13:09:58.283Z,2.03
2023-04-28T13:12:26.276Z,1.58
2023-04-28T13:14:52.968Z,2.63
2023-04-28T13:17:19.690Z,3.15
2023-04-28T13:19:47.432Z,2.13
2023-04-28T13:22:14.784Z,3.35
2023-04-28T13:24:41.657Z,2.33
2023-04-28T13:27:09.801Z,2.83
2023-04-28T13:29:37.563Z,2.20
2023-04-28T13:32:05.719Z,2.78
2023-04-28T13:34:33.005Z,1.42
2023-04-28T13:37:09.028Z,0.90
2023-04-28T13:39:35.878Z,1.67
2023-04-28T13:42:02.737Z,1.00
2023-04-28T13:44:29.340Z,1.13
2023-04-28T13:46:59.036Z,1.60
2023-04-28T13:49:25.756Z,1.38
2023-04-28T13:51:52.680Z,1.40
2023-04-28T13:54:19.597Z,0.98
2023-04-28T13:56:46.878Z,1.10
2023-04-28T13:59:13.641Z,1.52
2023-04-28T14:01:40.760Z,1.23
2023-04-28T14:04:07.838Z,1.48
2023-04-28T14:06:34.939Z,2.35
2023-04-28T14:09:02.799Z,2.72
2023-04-28T14:11:29.569Z,2.25
2023-04-28T14:13:56.227Z,2.40
2023-04-28T14:16:22.965Z,2.17
2023-04-28T14:18:49.850Z,2.97
2023-04-28T14:21:16.606Z,2.40
2023-04-28T14:23:43.334Z,2.60
2023-04-28T14:26:10.062Z,5.25
2023-04-28T14:28:38.507Z,3.72
2023-04-28T14:31:09.985Z,4.50
2023-04-28T14:33:36.920Z,3.95
2023-04-28T14:36:04.300Z,3.13
2023-04-28T14:38:31.272Z,3.25
2023-04-28T14:40:58.464Z,2.85
2023-04-28T14:43:25.938Z,3.85
2023-04-28T14:45:52.989Z,5.07
2023-04-28T14:48:20.212Z,5.88
2023-04-28T14:50:47.678Z,5.90
2023-04-28T14:53:14.763Z,4.32
2023-04-28T14:55:41.681Z,4.25
2023-04-28T14:58:08.757Z,5.18
2023-04-28T15:00:36.243Z,4.38
2023-04-28T15:03:03.188Z,4.50
2023-04-28T15:05:30.337Z,4.85
2023-04-28T15:07:57.044Z,2.40
2023-04-28T15:10:24.366Z,2.55
2023-04-28T15:12:52.313Z,2.33
2023-04-28T15:15:19.106Z,2.33
2023-04-28T15:17:45.978Z,2.13
2023-04-28T15:20:12.938Z,1.58
2023-04-28T15:22:39.587Z,1.50
2023-04-28T15:25:06.921Z,3.20
2023-04-28T15:27:33.604Z,3.50
2023-04-28T15:30:00.480Z,1.90
2023-04-28T15:32:29.772Z,1.38
2023-04-28T15:34:57.325Z,1.90
2023-04-28T15:37:44.580Z,1.25
2023-04-28T15:40:13.480Z,1.92
2023-04-28T15:42:42.535Z,0.90
2023-04-28T15:45:10.491Z,1.45
2023-04-28T15:47:39.075Z,1.60
2023-04-28T15:50:08.211Z,0.90
2023-04-28T15:52:34.945Z,1.25
2023-04-28T15:55:02.073Z,2.90
2023-04-28T15:57:29.688Z,0.68
2023-04-28T15:59:56.561Z,0.40
2023-04-28T16:02:24.426Z,0.88
2023-04-28T16:04:52.038Z,0.77
2023-04-28T16:07:20.933Z,0.82
2023-04-28T16:09:47.748Z,0.90
2023-04-28T16:12:14.716Z,1.20
2023-04-28T16:14:41.531Z,0.50
2023-04-28T16:17:09.726Z,0.50
2023-04-28T16:19:36.717Z,0.50
2023-04-28T16:22:04.776Z,0.50
2023-04-28T16:24:32.425Z,0.47
2023-04-28T16:26:59.252Z,0.50
2023-04-28T16:29:26.991Z,0.80
2023-04-28T16:31:56.398Z,1.02
2023-04-28T16:34:23.190Z,0.73
2023-04-28T16:36:50.292Z,0.70
2023-04-28T16:39:18.238Z,1.80
2023-04-28T16:41:45.028Z,0.85
2023-04-28T16:44:12.175Z,0.80
2023-04-28T16:46:39.628Z,2.47
2023-04-28T16:49:06.298Z,0.80
2023-04-28T16:51:33.427Z,3.75
2023-04-28T16:54:00.171Z,0.90
2023-04-28T16:56:28.313Z,0.85
2023-04-28T16:58:55.386Z,1.85
2023-04-28T17:01:23.737Z,2.35
2023-04-28T17:03:51.680Z,3.38
2023-04-28T17:06:18.598Z,3.85
2023-04-28T17:08:45.364Z,3.10
2023-04-28T17:11:17.083Z,4.55
2023-04-28T17:13:44.014Z,3.58
2023-04-28T17:16:11.585Z,3.03
2023-04-28T17:18:38.528Z,2.33
2023-04-28T17:21:05.540Z,2.28
2023-04-28T17:23:32.199Z,0.98
2023-04-28T17:25:58.932Z,2.47
2023-04-28T17:28:28.565Z,3.10
2023-04-28T17:30:55.978Z,2.90
2023-04-28T17:33:22.866Z,2.95
2023-04-28T17:35:49.936Z,3.20
2023-04-28T17:38:16.561Z,4.78
2023-04-28T17:40:48.539Z,5.10
2023-04-28T17:43:20.461Z,5.60
2023-04-28T17:45:47.408Z,5.88
2023-04-28T17:48:14.602Z,4.63
2023-04-28T17:50:41.606Z,8.48
2023-04-28T17:53:08.360Z,3.30
2023-04-28T17:55:35.001Z,5.57
2023-04-28T17:58:01.731Z,4.60
2023-04-28T18:00:29.195Z,5.20
2023-04-28T18:02:56.128Z,5.75
2023-04-28T18:05:24.451Z,5.70
2023-04-28T18:07:52.483Z,3.95
2023-04-28T18:10:19.402Z,17.50
2023-04-28T18:12:46.448Z,2.13
2023-04-28T18:15:13.512Z,3.72
2023-04-28T18:17:40.304Z,4.38
2023-04-28T18:20:07.759Z,3.80
2023-04-28T18:22:35.007Z,2.90
2023-04-28T18:25:01.649Z,1.80
2023-04-28T18:27:28.482Z,1.35
2023-04-28T18:29:56.020Z,1.65
2023-04-28T18:32:22.928Z,1.80
2023-04-28T18:34:49.973Z,0.70
2023-04-28T18:37:16.884Z,1.27
2023-04-28T18:39:43.762Z,1.10
2023-04-28T18:42:10.507Z,2.30
2023-04-28T18:44:37.132Z,1.17
2023-04-28T18:47:03.829Z,1.38
2023-04-28T18:49:32.322Z,1.20
2023-04-28T18:52:03.527Z,0.60
2023-04-28T18:54:31.170Z,1.50
2023-04-28T18:56:59.875Z,0.85
2023-04-28T18:59:27.215Z,1.23
2023-04-28T19:01:54.886Z,2.22
2023-04-28T19:04:22.817Z,15.85
2023-04-28T19:06:49.780Z,1.63
2023-04-28T19:09:17.127Z,1.65
2023-04-28T19:11:44.076Z,2.70
2023-04-28T19:14:11.331Z,1.48
2023-04-28T19:16:38.152Z,1.50
2023-04-28T19:19:04.991Z,1.40
2023-04-28T19:21:42.577Z,1.20
2023-04-28T19:24:09.384Z,1.45
2023-04-28T19:26:37.305Z,1.55
2023-04-28T19:29:04.066Z,1.90
2023-04-28T19:31:33.941Z,1.98
2023-04-28T19:34:01.064Z,2.17
2023-04-28T19:36:28.554Z,2.97
2023-04-28T19:38:55.362Z,3.38
2023-04-28T19:41:21.971Z,2.80
2023-04-28T19:43:48.840Z,5.20
2023-04-28T19:46:18.037Z,3.10
2023-04-28T19:48:47.080Z,4.35
2023-04-28T19:51:14.480Z,4.07
2023-04-28T19:53:41.226Z,3.85
2023-04-28T19:56:10.212Z,3.78
2023-04-28T19:58:38.045Z,3.70
2023-04-28T20:01:08.483Z,3.75
2023-04-28T20:03:36.368Z,3.95
2023-04-28T20:06:03.944Z,4.63
2023-04-28T20:08:30.580Z,4.78
2023-04-28T20:10:57.370Z,5.75
2023-04-28T20:13:24.541Z,7.20
2023-04-28T20:15:52.034Z,8.23
2023-04-28T20:18:18.953Z,8.23
2023-04-28T20:20:45.670Z,8.05
2023-04-28T20:23:12.518Z,8.48
2023-04-28T20:25:39.676Z,5.45
2023-04-28T20:28:08.151Z,4.63
2023-04-28T20:30:34.901Z,5.28
2023-04-28T20:33:01.748Z,4.05
2023-04-28T20:35:29.070Z,3.78
2023-04-28T20:37:56.046Z,1.85
2023-04-28T20:40:22.868Z,2.55
2023-04-28T20:42:49.893Z,2.58
2023-04-28T20:45:17.180Z,2.80
2023-04-28T20:47:43.967Z,2.78
2023-04-28T20:50:11.599Z,3.42
2023-04-28T20:52:38.559Z,2.90
2023-04-28T20:55:05.766Z,3.95
2023-04-28T20:57:32.394Z,3.35
2023-04-28T20:59:59.013Z,3.70
2023-04-28T21:02:26.013Z,3.92
2023-04-28T21:04:53.837Z,3.97
2023-04-28T21:07:20.797Z,4.55
2023-04-28T21:09:47.493Z,3.92
2023-04-28T21:12:14.574Z,3.92
2023-04-28T21:14:41.502Z,3.08
2023-04-28T21:17:10.834Z,3.15
2023-04-28T21:19:37.504Z,5.07
2023-04-28T21:22:04.217Z,4.00
2023-04-28T21:24:30.965Z,3.42
2023-04-28T21:26:59.557Z,3.80
2023-04-28T21:29:27.615Z,3.70
2023-04-28T21:31:54.462Z,6.13
2023-04-28T21:34:21.198Z,5.00
2023-04-28T21:36:48.504Z,4.38
2023-04-28T21:39:15.293Z,4.47
2023-04-28T21:41:43.075Z,4.70
2023-04-28T21:44:09.750Z,6.75
2023-04-28T21:46:36.643Z,5.30
2023-04-28T21:49:03.417Z,4.63
2023-04-28T21:51:30.144Z,5.53
2023-04-28T21:53:56.778Z,4.60
2023-04-28T21:56:23.445Z,4.68
2023-04-28T21:58:50.125Z,4.15
2023-04-28T22:01:17.990Z,4.50
2023-04-28T22:03:45.987Z,7.07
2023-04-28T22:06:13.651Z,4.70
2023-04-28T22:08:40.352Z,3.80
2023-04-28T22:11:07.345Z,4.10
2023-04-28T22:13:34.065Z,4.07
2023-04-28T22:16:01.949Z,4.60
2023-04-28T22:18:29.206Z,4.18
2023-04-28T22:20:55.919Z,4.07
2023-04-28T22:23:22.985Z,3.78
2023-04-28T22:25:49.721Z,4.05
2023-04-28T22:28:16.524Z,2.67
2023-04-28T22:30:46.087Z,3.00
2023-04-28T22:33:12.927Z,2.83
2023-04-28T22:35:39.709Z,2.53
2023-04-28T22:38:06.939Z,2.47
2023-04-28T22:40:33.668Z,4.45
2023-04-28T22:43:00.428Z,2.90
2023-04-28T22:45:27.315Z,3.35
2023-04-28T22:47:54.452Z,2.80
2023-04-28T22:50:21.679Z,2.92
2023-04-28T22:52:48.423Z,3.00
2023-04-28T22:55:16.730Z,3.38
2023-04-28T22:57:43.525Z,3.00
2023-04-28T23:00:10.887Z,3.47
2023-04-28T23:02:37.971Z,3.22
2023-04-28T23:05:05.117Z,3.28
2023-04-28T23:07:31.823Z,3.05
2023-04-28T23:09:58.542Z,2.80
2023-04-28T23:12:25.321Z,3.03
2023-04-28T23:14:52.058Z,3.58
2023-04-28T23:17:18.873Z,3.08
2023-04-28T23:19:45.584Z,3.50
2023-04-28T23:22:12.230Z,3.25
2023-04-28T23:24:40.093Z,3.42
2023-04-28T23:27:07.002Z,3.03
2023-04-28T23:29:35.805Z,3.22
2023-04-28T23:32:03.785Z,3.47
2023-04-28T23:34:33.331Z,2.78
2023-04-28T23:37:01.154Z,2.85
2023-04-28T23:39:30.267Z,2.88
2023-04-28T23:41:57.101Z,2.78
2023-04-28T23:44:23.692Z,2.40
2023-04-28T23:46:50.696Z,2.00
2023-04-28T23:49:17.916Z,2.17
2023-04-28T23:51:44.628Z,1.92
2023-04-28T23:54:11.707Z,2.10
2023-04-28T23:56:38.545Z,2.28
2023-04-28T23:59:05.431Z,2.40
